Nearby METAR Reports

 

KCPC - Whiteville, North Carolina, USA
Distance from station: NNE 17mi, 28km
Updated: 01/17/2018 1:55am
Clear
Clear
 Wind from calm
Wind: Calm
Temperature: 32°F , 0°C
Dew Point: 30°F , -1°C
Humidity: 93%
Barometer: 30.28 inHg , 1025.4 hPa
Clouds: Clear
Visibility: 10 miles , 16 km
2018/01/17 06:55 KCPC 170655Z AUTO 00000KT 10SM CLR 00/M01 A3028 RMK AO2 T00021013
KCRE - North Myrtle Bea, South Carolina, USA
Distance from station: SSE 19mi, 31km
Updated: 01/17/2018 1:53am
Clear
Clear
 Wind from calm
Wind: Calm
Temperature: 32°F , 0°C
Dew Point: 30°F , -1°C
Humidity: 93%
Barometer: 30.28 inHg , 1025.4 hPa
Clouds: Clear
Visibility: 10 miles , 16 km
2018/01/17 06:53 KCRE 170653Z AUTO 00000KT 10SM CLR 00/M01 A3028 RMK AO1 SLP254 T00001011
 
KHYW - Conway-Horry Cty, South Carolina, USA
Distance from station: SW 22mi, 35km
Updated: 01/17/2018 1:55am
Clear
Clear
 Wind from calm
Wind: Calm
Temperature: 32°F , 0°C
Dew Point: 32°F , 0°C
Humidity: 100%
Barometer: 30.29 inHg , 1025.7 hPa
Clouds: Clear
Visibility: 7 miles , 11 km
2018/01/17 06:55 KHYW 170655Z AUTO 00000KT 7SM CLR 00/00 A3029 RMK AO2
KMAO - Marion, South Carolina, USA
Distance from station: WNW 28mi, 45km
Updated: 01/17/2018 1:55am
Clear
Clear
 Wind from calm
Wind: Calm
Temperature: 32°F , 0°C
Dew Point: 30°F , -1°C
Humidity: 93%
Barometer: 30.29 inHg , 1025.7 hPa
Clouds: Clear
Visibility: 10 miles , 16 km
2018/01/17 06:55 KMAO 170655Z AUTO 00000KT 10SM CLR 00/M01 A3029 RMK AO2
 
KMYR - Myrtle Beach, South Carolina, USA
Distance from station: S 28mi, 45km
Updated: 01/17/2018 1:56am
Clear
Clear
 Wind from calm
Wind: Calm
Temperature: 32°F , 0°C
Dew Point: 30°F , -1°C
Humidity: 93%
Barometer: 30.30 inHg , 1026.1 hPa
Clouds: Clear
Visibility: 10 miles , 16 km
2018/01/17 06:56 KMYR 170656Z AUTO 00000KT 10SM CLR 00/M01 A3030 RMK AO2 SLP260 T00001011 FZRANO
KLBT - Lumberton, North Carolina, USA
Distance from station: NNW 39mi, 62km
Updated: 01/17/2018 1:54am
Clear
Clear
 Wind from calm
Wind: Calm
Temperature: 32°F , 0°C
Dew Point: 28°F , -2°C
Humidity: 87%
Barometer: 30.28 inHg , 1025.4 hPa
Clouds: Clear
Visibility: 10 miles , 16 km
2018/01/17 06:54 KLBT 170654Z AUTO 00000KT 10SM CLR 00/M02 A3028 RMK AO2 SLP253 T00001017
 
KSUT - Southport, North Carolina, USA
Distance from station: E 46mi, 74km
Updated: 01/17/2018 1:55am
Clear
Clear
 Wind from calm
Wind: Calm
Temperature: 32°F , 0°C
Dew Point: 32°F , 0°C
Humidity: 100%
Barometer: 30.29 inHg , 1025.7 hPa
Clouds: Clear
Visibility: 10 miles , 16 km
2018/01/17 06:55 KSUT 170655Z AUTO 00000KT 10SM CLR 00/00 A3029 RMK AO2 T00000000
KFLO - Florence, South Carolina, USA
Distance from station: W 50mi, 81km
Updated: 01/17/2018 1:53am
Clear
Clear
 Wind from calm
Wind: Calm
Temperature: 37°F , 3°C
Dew Point: 30°F , -1°C
Humidity: 75%
Barometer: 30.28 inHg , 1025.4 hPa
Clouds: Clear
Visibility: 10 miles , 16 km
2018/01/17 06:53 KFLO 170653Z AUTO 00000KT 10SM CLR 03/M01 A3028 RMK AO2 SLP254 T00331011